sensor_id;sensor_type;location;lat;lon;timestamp;temperature;humidity
37408;DHT22;24866;50.248;8.252;2023-01-01T00:00:53;13.40;99.90
37408;DHT22;24866;50.248;8.252;2023-01-01T00:03:23;13.50;99.90
37408;DHT22;24866;50.248;8.252;2023-01-01T00:05:53;13.50;99.90
37408;DHT22;24866;50.248;8.252;2023-01-01T00:08:24;13.50;99.90
37408;DHT22;24866;50.248;8.252;2023-01-01T00:10:55;13.60;99.90
37408;DHT22;24866;50.248;8.252;2023-01-01T00:13:28;13.60;99.90
37408;DHT22;24866;50.248;8.252;2023-01-01T00:16:03;13.60;99.90
37408;DHT22;24866;50.248;8.252;2023-01-01T00:18:35;13.50;99.90
37408;DHT22;24866;50.248;8.252;2023-01-01T00:21:08;13.50;99.90
37408;DHT22;24866;50.248;8.252;2023-01-01T00:23:39;13.50;99.90
37408;DHT22;24866;50.248;8.252;2023-01-01T00:26:10;13.50;99.90
37408;DHT22;24866;50.248;8.252;2023-01-01T00:28:41;13.50;99.90
37408;DHT22;24866;50.248;8.252;2023-01-01T00:31:12;13.40;99.90
37408;DHT22;24866;50.248;8.252;2023-01-01T00:33:45;13.20;99.90
37408;DHT22;24866;50.248;8.252;2023-01-01T00:36:16;13.40;99.90
37408;DHT22;24866;50.248;8.252;2023-01-01T00:38:47;13.40;99.90
37408;DHT22;24866;50.248;8.252;2023-01-01T00:41:17;13.40;99.90
37408;DHT22;24866;50.248;8.252;2023-01-01T00:43:48;13.30;99.90
37408;DHT22;24866;50.248;8.252;2023-01-01T00:46:17;13.30;99.90
37408;DHT22;24866;50.248;8.252;2023-01-01T00:48:47;13.20;99.90
37408;DHT22;24866;50.248;8.252;2023-01-01T00:51:17;13.20;99.90
37408;DHT22;24866;50.248;8.252;2023-01-01T00:53:49;13.20;99.90
37408;DHT22;24866;50.248;8.252;2023-01-01T00:56:19;13.20;99.90
37408;DHT22;24866;50.248;8.252;2023-01-01T00:58:49;13.40;99.90
37408;DHT22;24866;50.248;8.252;2023-01-01T01:01:19;13.50;99.90
37408;DHT22;24866;50.248;8.252;2023-01-01T01:03:49;13.40;99.90
37408;DHT22;24866;50.248;8.252;2023-01-01T01:06:20;13.20;99.90
37408;DHT22;24866;50.248;8.252;2023-01-01T01:08:51;13.30;99.90
37408;DHT22;24866;50.248;8.252;2023-01-01T01:11:23;13.20;99.90
37408;DHT22;24866;50.248;8.252;2023-01-01T01:13:55;13.00;99.90
37408;DHT22;24866;50.248;8.252;2023-01-01T01:16:26;13.00;99.90
37408;DHT22;24866;50.248;8.252;2023-01-01T01:18:58;13.00;99.90
37408;DHT22;24866;50.248;8.252;2023-01-01T01:21:30;12.80;99.90
37408;DHT22;24866;50.248;8.252;2023-01-01T01:24:03;12.90;99.90
37408;DHT22;24866;50.248;8.252;2023-01-01T01:26:33;12.90;99.90
37408;DHT22;24866;50.248;8.252;2023-01-01T01:29:04;12.80;99.90
37408;DHT22;24866;50.248;8.252;2023-01-01T01:31:34;12.80;99.90
37408;DHT22;24866;50.248;8.252;2023-01-01T01:34:04;12.80;99.90
37408;DHT22;24866;50.248;8.252;2023-01-01T01:36:34;12.70;99.90
37408;DHT22;24866;50.248;8.252;2023-01-01T01:39:08;12.70;99.90
37408;DHT22;24866;50.248;8.252;2023-01-01T01:41:39;12.60;99.90
37408;DHT22;24866;50.248;8.252;2023-01-01T01:47:16;12.50;99.90
37408;DHT22;24866;50.248;8.252;2023-01-01T01:49:49;12.70;99.90
37408;DHT22;24866;50.248;8.252;2023-01-01T01:52:21;12.60;99.90
37408;DHT22;24866;50.248;8.252;2023-01-01T01:54:54;12.50;99.90
37408;DHT22;24866;50.248;8.252;2023-01-01T01:57:25;12.50;99.90
37408;DHT22;24866;50.248;8.252;2023-01-01T01:59:57;12.60;99.90
37408;DHT22;24866;50.248;8.252;2023-01-01T02:02:33;12.60;99.90
37408;DHT22;24866;50.248;8.252;2023-01-01T02:05:06;12.50;99.90
37408;DHT22;24866;50.248;8.252;2023-01-01T02:07:37;12.50;99.90
37408;DHT22;24866;50.248;8.252;2023-01-01T02:10:09;12.50;99.90
37408;DHT22;24866;50.248;8.252;2023-01-01T02:12:39;12.50;99.90
37408;DHT22;24866;50.248;8.252;2023-01-01T02:15:09;12.60;99.90
37408;DHT22;24866;50.248;8.252;2023-01-01T02:17:46;12.40;99.90
37408;DHT22;24866;50.248;8.252;2023-01-01T02:20:30;12.30;99.90
37408;DHT22;24866;50.248;8.252;2023-01-01T02:26:20;12.30;99.90
37408;DHT22;24866;50.248;8.252;2023-01-01T02:28:59;12.30;99.90
37408;DHT22;24866;50.248;8.252;2023-01-01T02:31:33;12.30;99.90
37408;DHT22;24866;50.248;8.252;2023-01-01T02:34:06;12.20;99.90
37408;DHT22;24866;50.248;8.252;2023-01-01T02:36:40;12.20;99.90
37408;DHT22;24866;50.248;8.252;2023-01-01T02:39:13;12.20;99.90
37408;DHT22;24866;50.248;8.252;2023-01-01T02:41:47;12.30;99.90
37408;DHT22;24866;50.248;8.252;2023-01-01T02:44:20;12.30;99.90
37408;DHT22;24866;50.248;8.252;2023-01-01T02:46:51;12.30;99.90
37408;DHT22;24866;50.248;8.252;2023-01-01T02:49:21;12.40;99.90
37408;DHT22;24866;50.248;8.252;2023-01-01T02:52:00;12.40;99.90
37408;DHT22;24866;50.248;8.252;2023-01-01T02:54:36;12.40;99.90
37408;DHT22;24866;50.248;8.252;2023-01-01T02:57:11;12.50;99.90
37408;DHT22;24866;50.248;8.252;2023-01-01T02:59:57;12.50;99.90
37408;DHT22;24866;50.248;8.252;2023-01-01T03:05:40;12.60;99.90
37408;DHT22;24866;50.248;8.252;2023-01-01T03:08:33;12.60;99.90
37408;DHT22;24866;50.248;8.252;2023-01-01T03:11:12;12.60;99.90
37408;DHT22;24866;50.248;8.252;2023-01-01T03:13:48;12.60;99.90
37408;DHT22;24866;50.248;8.252;2023-01-01T03:16:27;12.60;99.90
37408;DHT22;24866;50.248;8.252;2023-01-01T03:19:02;12.60;99.90
37408;DHT22;24866;50.248;8.252;2023-01-01T03:21:41;12.50;99.90
37408;DHT22;24866;50.248;8.252;2023-01-01T03:24:17;12.50;99.90
37408;DHT22;24866;50.248;8.252;2023-01-01T03:26:51;12.50;99.90
37408;DHT22;24866;50.248;8.252;2023-01-01T03:29:23;12.50;99.90
37408;DHT22;24866;50.248;8.252;2023-01-01T03:31:57;12.50;99.90
37408;DHT22;24866;50.248;8.252;2023-01-01T03:34:31;12.60;99.90
37408;DHT22;24866;50.248;8.252;2023-01-01T03:37:06;12.60;99.90
37408;DHT22;24866;50.248;8.252;2023-01-01T03:39:40;12.50;99.90
37408;DHT22;24866;50.248;8.252;2023-01-01T03:42:16;12.50;99.90
37408;DHT22;24866;50.248;8.252;2023-01-01T03:44:50;12.60;99.90
37408;DHT22;24866;50.248;8.252;2023-01-01T03:47:23;12.50;99.90
37408;DHT22;24866;50.248;8.252;2023-01-01T03:49:54;12.40;99.90
37408;DHT22;24866;50.248;8.252;2023-01-01T03:52:35;12.40;99.90
37408;DHT22;24866;50.248;8.252;2023-01-01T03:55:11;12.40;99.90
37408;DHT22;24866;50.248;8.252;2023-01-01T03:57:49;12.40;99.90
37408;DHT22;24866;50.248;8.252;2023-01-01T04:00:25;12.40;99.90
37408;DHT22;24866;50.248;8.252;2023-01-01T04:03:01;12.40;99.90
37408;DHT22;24866;50.248;8.252;2023-01-01T04:05:35;12.40;99.90
37408;DHT22;24866;50.248;8.252;2023-01-01T04:08:06;12.40;99.90
37408;DHT22;24866;50.248;8.252;2023-01-01T04:10:40;12.40;99.90
37408;DHT22;24866;50.248;8.252;2023-01-01T04:13:10;12.40;99.90
37408;DHT22;24866;50.248;8.252;2023-01-01T04:15:41;12.60;99.90
37408;DHT22;24866;50.248;8.252;2023-01-01T04:18:13;12.50;99.90
37408;DHT22;24866;50.248;8.252;2023-01-01T04:20:43;12.40;99.90
37408;DHT22;24866;50.248;8.252;2023-01-01T04:23:13;12.40;99.90
37408;DHT22;24866;50.248;8.252;2023-01-01T04:25:43;12.60;99.90
37408;DHT22;24866;50.248;8.252;2023-01-01T04:28:13;12.50;99.90
37408;DHT22;24866;50.248;8.252;2023-01-01T04:30:42;12.50;99.90
37408;DHT22;24866;50.248;8.252;2023-01-01T04:33:14;12.50;99.90
37408;DHT22;24866;50.248;8.252;2023-01-01T04:35:44;12.50;99.90
37408;DHT22;24866;50.248;8.252;2023-01-01T04:38:14;12.40;99.90
37408;DHT22;24866;50.248;8.252;2023-01-01T04:40:43;12.40;99.90
37408;DHT22;24866;50.248;8.252;2023-01-01T04:43:13;12.50;99.90
37408;DHT22;24866;50.248;8.252;2023-01-01T04:45:43;12.40;99.90
37408;DHT22;24866;50.248;8.252;2023-01-01T04:48:15;12.40;99.90
37408;DHT22;24866;50.248;8.252;2023-01-01T04:50:53;12.30;99.90
37408;DHT22;24866;50.248;8.252;2023-01-01T04:53:24;12.30;99.90
37408;DHT22;24866;50.248;8.252;2023-01-01T04:55:55;12.40;99.90
37408;DHT22;24866;50.248;8.252;2023-01-01T04:58:25;12.50;99.90
37408;DHT22;24866;50.248;8.252;2023-01-01T05:00:56;12.50;99.90
37408;DHT22;24866;50.248;8.252;2023-01-01T05:03:28;12.50;99.90
37408;DHT22;24866;50.248;8.252;2023-01-01T05:05:59;12.50;99.90
37408;DHT22;24866;50.248;8.252;2023-01-01T05:08:29;12.40;99.90
37408;DHT22;24866;50.248;8.252;2023-01-01T05:11:00;12.50;99.90
37408;DHT22;24866;50.248;8.252;2023-01-01T05:13:30;12.50;99.90
37408;DHT22;24866;50.248;8.252;2023-01-01T05:16:01;12.40;99.90
37408;DHT22;24866;50.248;8.252;2023-01-01T05:18:33;12.30;99.90
37408;DHT22;24866;50.248;8.252;2023-01-01T05:21:06;12.30;99.90
37408;DHT22;24866;50.248;8.252;2023-01-01T05:23:36;12.50;99.90
37408;DHT22;24866;50.248;8.252;2023-01-01T05:26:10;12.40;99.90
37408;DHT22;24866;50.248;8.252;2023-01-01T05:28:41;12.30;99.90
37408;DHT22;24866;50.248;8.252;2023-01-01T05:31:13;12.50;99.90
37408;DHT22;24866;50.248;8.252;2023-01-01T05:33:45;12.40;99.90
37408;DHT22;24866;50.248;8.252;2023-01-01T05:36:17;12.30;99.90
37408;DHT22;24866;50.248;8.252;2023-01-01T05:38:47;12.30;99.90
37408;DHT22;24866;50.248;8.252;2023-01-01T05:41:18;12.30;99.90
37408;DHT22;24866;50.248;8.252;2023-01-01T05:43:49;12.20;99.90
37408;DHT22;24866;50.248;8.252;2023-01-01T05:46:21;12.30;99.90
37408;DHT22;24866;50.248;8.252;2023-01-01T05:48:53;12.20;99.90
37408;DHT22;24866;50.248;8.252;2023-01-01T05:51:25;12.30;99.90
37408;DHT22;24866;50.248;8.252;2023-01-01T05:53:56;12.30;99.90
37408;DHT22;24866;50.248;8.252;2023-01-01T05:56:27;12.50;99.90
37408;DHT22;24866;50.248;8.252;2023-01-01T05:58:57;12.40;99.90
37408;DHT22;24866;50.248;8.252;2023-01-01T06:01:29;12.40;99.90
37408;DHT22;24866;50.248;8.252;2023-01-01T06:04:00;12.30;99.90
37408;DHT22;24866;50.248;8.252;2023-01-01T06:06:30;12.30;99.90
37408;DHT22;24866;50.248;8.252;2023-01-01T06:09:03;12.40;99.90
37408;DHT22;24866;50.248;8.252;2023-01-01T06:11:33;12.40;99.90
37408;DHT22;24866;50.248;8.252;2023-01-01T06:14:03;12.50;99.90
37408;DHT22;24866;50.248;8.252;2023-01-01T06:16:33;12.50;99.90
37408;DHT22;24866;50.248;8.252;2023-01-01T06:19:04;12.50;99.90
37408;DHT22;24866;50.248;8.252;2023-01-01T06:21:34;12.50;99.90
37408;DHT22;24866;50.248;8.252;2023-01-01T06:24:05;12.40;99.90
37408;DHT22;24866;50.248;8.252;2023-01-01T06:26:36;12.50;99.90
37408;DHT22;24866;50.248;8.252;2023-01-01T06:29:07;12.40;99.90
37408;DHT22;24866;50.248;8.252;2023-01-01T06:31:37;12.40;99.90
37408;DHT22;24866;50.248;8.252;2023-01-01T06:34:08;12.40;99.90
37408;DHT22;24866;50.248;8.252;2023-01-01T06:36:38;12.50;99.90
37408;DHT22;24866;50.248;8.252;2023-01-01T06:39:08;12.50;99.90
37408;DHT22;24866;50.248;8.252;2023-01-01T06:41:38;12.50;99.90
37408;DHT22;24866;50.248;8.252;2023-01-01T06:44:08;12.60;99.90
37408;DHT22;24866;50.248;8.252;2023-01-01T06:46:38;12.70;99.90
37408;DHT22;24866;50.248;8.252;2023-01-01T06:49:10;12.50;99.90
37408;DHT22;24866;50.248;8.252;2023-01-01T06:51:41;12.70;99.90
37408;DHT22;24866;50.248;8.252;2023-01-01T06:54:11;12.70;99.90
37408;DHT22;24866;50.248;8.252;2023-01-01T06:56:41;12.70;99.90
37408;DHT22;24866;50.248;8.252;2023-01-01T06:59:10;12.80;99.90
37408;DHT22;24866;50.248;8.252;2023-01-01T07:01:40;12.80;99.90
37408;DHT22;24866;50.248;8.252;2023-01-01T07:04:13;12.70;99.90
37408;DHT22;24866;50.248;8.252;2023-01-01T07:06:44;12.80;99.90
37408;DHT22;24866;50.248;8.252;2023-01-01T07:09:13;12.70;99.90
37408;DHT22;24866;50.248;8.252;2023-01-01T07:11:43;12.70;99.90
37408;DHT22;24866;50.248;8.252;2023-01-01T07:14:13;12.70;99.90
37408;DHT22;24866;50.248;8.252;2023-01-01T07:16:43;12.60;99.90
37408;DHT22;24866;50.248;8.252;2023-01-01T07:19:14;12.60;99.90
37408;DHT22;24866;50.248;8.252;2023-01-01T07:21:45;12.80;99.90
37408;DHT22;24866;50.248;8.252;2023-01-01T07:24:20;12.60;99.90
37408;DHT22;24866;50.248;8.252;2023-01-01T07:26:50;12.80;99.90
37408;DHT22;24866;50.248;8.252;2023-01-01T07:29:20;12.60;99.90
37408;DHT22;24866;50.248;8.252;2023-01-01T07:31:50;12.70;99.90
37408;DHT22;24866;50.248;8.252;2023-01-01T07:34:22;12.70;99.90
37408;DHT22;24866;50.248;8.252;2023-01-01T07:36:52;12.60;99.90
37408;DHT22;24866;50.248;8.252;2023-01-01T07:39:22;12.60;99.90
37408;DHT22;24866;50.248;8.252;2023-01-01T07:41:52;12.80;99.90
37408;DHT22;24866;50.248;8.252;2023-01-01T07:44:22;12.60;99.90
37408;DHT22;24866;50.248;8.252;2023-01-01T07:47:01;12.60;99.90
37408;DHT22;24866;50.248;8.252;2023-01-01T07:49:32;12.50;99.90
37408;DHT22;24866;50.248;8.252;2023-01-01T07:52:02;12.40;99.90
37408;DHT22;24866;50.248;8.252;2023-01-01T07:54:32;12.40;99.90
37408;DHT22;24866;50.248;8.252;2023-01-01T07:57:02;12.30;99.90
37408;DHT22;24866;50.248;8.252;2023-01-01T07:59:32;12.40;99.90
37408;DHT22;24866;50.248;8.252;2023-01-01T08:02:03;12.30;99.90
37408;DHT22;24866;50.248;8.252;2023-01-01T08:04:34;12.40;99.90
37408;DHT22;24866;50.248;8.252;2023-01-01T08:07:04;12.30;99.90
37408;DHT22;24866;50.248;8.252;2023-01-01T08:09:34;12.40;99.90
37408;DHT22;24866;50.248;8.252;2023-01-01T08:12:05;12.40;99.90
37408;DHT22;24866;50.248;8.252;2023-01-01T08:14:35;12.40;99.90
37408;DHT22;24866;50.248;8.252;2023-01-01T08:17:05;12.50;99.90
37408;DHT22;24866;50.248;8.252;2023-01-01T08:19:36;12.50;99.90
37408;DHT22;24866;50.248;8.252;2023-01-01T08:22:06;12.50;99.90
37408;DHT22;24866;50.248;8.252;2023-01-01T08:24:36;12.50;99.90
37408;DHT22;24866;50.248;8.252;2023-01-01T08:27:06;12.50;99.90
37408;DHT22;24866;50.248;8.252;2023-01-01T08:29:36;12.50;99.90
37408;DHT22;24866;50.248;8.252;2023-01-01T08:32:06;12.50;99.90
37408;DHT22;24866;50.248;8.252;2023-01-01T08:34:37;12.50;99.90
37408;DHT22;24866;50.248;8.252;2023-01-01T08:37:11;12.50;99.90
37408;DHT22;24866;50.248;8.252;2023-01-01T08:39:41;12.50;99.90
37408;DHT22;24866;50.248;8.252;2023-01-01T08:42:11;12.60;99.90
37408;DHT22;24866;50.248;8.252;2023-01-01T08:44:41;12.50;99.90
37408;DHT22;24866;50.248;8.252;2023-01-01T08:47:16;12.60;99.90
37408;DHT22;24866;50.248;8.252;2023-01-01T08:49:48;12.60;99.90
37408;DHT22;24866;50.248;8.252;2023-01-01T08:52:19;12.60;99.90
37408;DHT22;24866;50.248;8.252;2023-01-01T08:54:49;12.60;99.90
37408;DHT22;24866;50.248;8.252;2023-01-01T08:57:20;12.60;99.90
37408;DHT22;24866;50.248;8.252;2023-01-01T08:59:49;12.60;99.90
37408;DHT22;24866;50.248;8.252;2023-01-01T09:02:20;12.60;99.90
37408;DHT22;24866;50.248;8.252;2023-01-01T09:04:55;12.60;99.90
37408;DHT22;24866;50.248;8.252;2023-01-01T09:07:29;12.60;99.90
37408;DHT22;24866;50.248;8.252;2023-01-01T09:09:59;12.60;99.90
37408;DHT22;24866;50.248;8.252;2023-01-01T09:12:30;12.60;99.90
37408;DHT22;24866;50.248;8.252;2023-01-01T09:15:00;12.70;99.90
37408;DHT22;24866;50.248;8.252;2023-01-01T09:17:30;12.70;99.90
37408;DHT22;24866;50.248;8.252;2023-01-01T09:20:01;12.70;99.90
37408;DHT22;24866;50.248;8.252;2023-01-01T09:22:32;12.60;99.90
37408;DHT22;24866;50.248;8.252;2023-01-01T09:25:02;12.70;99.90
37408;DHT22;24866;50.248;8.252;2023-01-01T09:27:33;12.70;99.90
37408;DHT22;24866;50.248;8.252;2023-01-01T09:30:03;12.70;99.90
37408;DHT22;24866;50.248;8.252;2023-01-01T09:32:34;12.70;99.90
37408;DHT22;24866;50.248;8.252;2023-01-01T09:35:06;12.60;99.90
37408;DHT22;24866;50.248;8.252;2023-01-01T09:37:36;12.60;99.90
37408;DHT22;24866;50.248;8.252;2023-01-01T09:40:06;12.60;99.90
37408;DHT22;24866;50.248;8.252;2023-01-01T09:42:41;12.70;99.90
37408;DHT22;24866;50.248;8.252;2023-01-01T09:45:20;12.60;99.90
37408;DHT22;24866;50.248;8.252;2023-01-01T09:47:55;12.60;99.90
37408;DHT22;24866;50.248;8.252;2023-01-01T09:50:31;12.60;99.90
37408;DHT22;24866;50.248;8.252;2023-01-01T09:53:06;12.60;99.90
37408;DHT22;24866;50.248;8.252;2023-01-01T09:55:43;12.60;99.90
37408;DHT22;24866;50.248;8.252;2023-01-01T09:58:18;12.60;99.90
37408;DHT22;24866;50.248;8.252;2023-01-01T10:00:52;12.60;99.90
37408;DHT22;24866;50.248;8.252;2023-01-01T10:03:33;12.60;99.90
37408;DHT22;24866;50.248;8.252;2023-01-01T10:06:17;12.70;99.90
37408;DHT22;24866;50.248;8.252;2023-01-01T10:08:58;12.70;99.90
37408;DHT22;24866;50.248;8.252;2023-01-01T10:11:35;12.70;99.90
37408;DHT22;24866;50.248;8.252;2023-01-01T10:14:15;12.70;99.90
37408;DHT22;24866;50.248;8.252;2023-01-01T10:16:48;12.70;99.90
37408;DHT22;24866;50.248;8.252;2023-01-01T10:19:26;12.80;99.90
37408;DHT22;24866;50.248;8.252;2023-01-01T10:22:01;12.70;99.90
37408;DHT22;24866;50.248;8.252;2023-01-01T10:24:37;12.80;99.90
37408;DHT22;24866;50.248;8.252;2023-01-01T10:27:20;12.80;99.90
37408;DHT22;24866;50.248;8.252;2023-01-01T10:29:52;12.80;99.90
37408;DHT22;24866;50.248;8.252;2023-01-01T10:32:27;12.80;99.90
37408;DHT22;24866;50.248;8.252;2023-01-01T10:34:57;12.80;99.90
37408;DHT22;24866;50.248;8.252;2023-01-01T10:37:33;12.90;99.90
37408;DHT22;24866;50.248;8.252;2023-01-01T10:40:12;12.80;99.90
37408;DHT22;24866;50.248;8.252;2023-01-01T10:42:47;12.80;99.90
37408;DHT22;24866;50.248;8.252;2023-01-01T10:45:19;12.80;99.90
37408;DHT22;24866;50.248;8.252;2023-01-01T10:48:13;12.90;99.90
37408;DHT22;24866;50.248;8.252;2023-01-01T10:50:47;12.90;99.90
37408;DHT22;24866;50.248;8.252;2023-01-01T10:53:25;12.90;99.90
37408;DHT22;24866;50.248;8.252;2023-01-01T10:55:59;12.90;99.90
37408;DHT22;24866;50.248;8.252;2023-01-01T10:58:37;13.00;99.90
37408;DHT22;24866;50.248;8.252;2023-01-01T11:01:09;13.00;99.90
37408;DHT22;24866;50.248;8.252;2023-01-01T11:03:56;13.00;99.90
37408;DHT22;24866;50.248;8.252;2023-01-01T11:06:31;12.90;99.90
37408;DHT22;24866;50.248;8.252;2023-01-01T11:09:05;13.00;99.90
37408;DHT22;24866;50.248;8.252;2023-01-01T11:11:40;13.10;99.90
37408;DHT22;24866;50.248;8.252;2023-01-01T11:14:19;13.10;99.90
37408;DHT22;24866;50.248;8.252;2023-01-01T11:16:50;13.20;99.90
37408;DHT22;24866;50.248;8.252;2023-01-01T11:19:23;13.10;99.90
37408;DHT22;24866;50.248;8.252;2023-01-01T11:21:56;13.10;99.90
37408;DHT22;24866;50.248;8.252;2023-01-01T11:24:30;13.10;99.90
37408;DHT22;24866;50.248;8.252;2023-01-01T11:27:12;13.10;99.90
37408;DHT22;24866;50.248;8.252;2023-01-01T11:29:45;13.00;99.90
37408;DHT22;24866;50.248;8.252;2023-01-01T11:32:19;12.90;99.90
37408;DHT22;24866;50.248;8.252;2023-01-01T11:34:56;13.00;99.90
37408;DHT22;24866;50.248;8.252;2023-01-01T11:37:28;13.00;99.90
37408;DHT22;24866;50.248;8.252;2023-01-01T11:40:04;12.90;99.90
37408;DHT22;24866;50.248;8.252;2023-01-01T11:42:36;12.90;99.90
37408;DHT22;24866;50.248;8.252;2023-01-01T11:45:14;13.00;99.90
37408;DHT22;24866;50.248;8.252;2023-01-01T11:47:50;13.00;99.90
37408;DHT22;24866;50.248;8.252;2023-01-01T11:50:26;13.10;99.90
37408;DHT22;24866;50.248;8.252;2023-01-01T11:52:58;13.00;99.90
37408;DHT22;24866;50.248;8.252;2023-01-01T11:55:51;13.10;99.90
37408;DHT22;24866;50.248;8.252;2023-01-01T11:58:25;13.10;99.90
37408;DHT22;24866;50.248;8.252;2023-01-01T12:01:01;13.20;99.90
37408;DHT22;24866;50.248;8.252;2023-01-01T12:03:34;13.10;99.90
37408;DHT22;24866;50.248;8.252;2023-01-01T12:06:10;13.20;99.90
37408;DHT22;24866;50.248;8.252;2023-01-01T12:08:47;13.10;99.90
37408;DHT22;24866;50.248;8.252;2023-01-01T12:11:25;13.20;99.90
37408;DHT22;24866;50.248;8.252;2023-01-01T12:14:01;13.20;99.90
37408;DHT22;24866;50.248;8.252;2023-01-01T12:16:42;13.30;99.90
37408;DHT22;24866;50.248;8.252;2023-01-01T12:19:19;13.30;99.90
37408;DHT22;24866;50.248;8.252;2023-01-01T12:21:54;13.30;99.90
37408;DHT22;24866;50.248;8.252;2023-01-01T12:24:32;13.30;99.90
37408;DHT22;24866;50.248;8.252;2023-01-01T12:27:16;13.30;99.90
37408;DHT22;24866;50.248;8.252;2023-01-01T12:30:04;13.40;99.90
37408;DHT22;24866;50.248;8.252;2023-01-01T12:36:05;13.40;99.90
37408;DHT22;24866;50.248;8.252;2023-01-01T12:39:07;13.40;99.90
37408;DHT22;24866;50.248;8.252;2023-01-01T12:41:59;13.40;99.90
37408;DHT22;24866;50.248;8.252;2023-01-01T12:44:44;13.50;99.90
37408;DHT22;24866;50.248;8.252;2023-01-01T12:47:29;13.60;99.90
37408;DHT22;24866;50.248;8.252;2023-01-01T12:50:09;13.60;99.90
37408;DHT22;24866;50.248;8.252;2023-01-01T12:52:53;13.60;99.90
37408;DHT22;24866;50.248;8.252;2023-01-01T12:55:58;13.60;99.90
37408;DHT22;24866;50.248;8.252;2023-01-01T12:58:33;13.70;99.90
37408;DHT22;24866;50.248;8.252;2023-01-01T13:01:08;13.70;99.90
37408;DHT22;24866;50.248;8.252;2023-01-01T13:03:46;13.70;99.90
37408;DHT22;24866;50.248;8.252;2023-01-01T13:06:21;13.80;99.90
37408;DHT22;24866;50.248;8.252;2023-01-01T13:08:56;13.80;99.90
37408;DHT22;24866;50.248;8.252;2023-01-01T13:11:28;13.80;99.90
37408;DHT22;24866;50.248;8.252;2023-01-01T13:13:58;13.80;99.90
37408;DHT22;24866;50.248;8.252;2023-01-01T13:30:01;13.90;99.90
37408;DHT22;24866;50.248;8.252;2023-01-01T13:35:43;13.80;99.90
37408;DHT22;24866;50.248;8.252;2023-01-01T13:41:31;13.70;99.90
37408;DHT22;24866;50.248;8.252;2023-01-01T13:44:21;13.70;99.90
37408;DHT22;24866;50.248;8.252;2023-01-01T13:47:04;13.70;99.90
37408;DHT22;24866;50.248;8.252;2023-01-01T14:05:44;13.60;99.90
37408;DHT22;24866;50.248;8.252;2023-01-01T14:08:27;13.40;99.90
37408;DHT22;24866;50.248;8.252;2023-01-01T14:10:59;13.50;99.90
37408;DHT22;24866;50.248;8.252;2023-01-01T14:13:37;13.40;99.90
37408;DHT22;24866;50.248;8.252;2023-01-01T14:16:09;13.40;99.90
37408;DHT22;24866;50.248;8.252;2023-01-01T14:18:44;13.40;99.90
37408;DHT22;24866;50.248;8.252;2023-01-01T14:21:19;13.40;99.90
37408;DHT22;24866;50.248;8.252;2023-01-01T14:23:51;13.40;99.90
37408;DHT22;24866;50.248;8.252;2023-01-01T14:26:25;13.40;99.90
37408;DHT22;24866;50.248;8.252;2023-01-01T14:28:57;13.40;99.90
37408;DHT22;24866;50.248;8.252;2023-01-01T14:31:29;13.30;99.90
37408;DHT22;24866;50.248;8.252;2023-01-01T14:34:12;13.30;99.90
37408;DHT22;24866;50.248;8.252;2023-01-01T14:36:52;13.30;99.90
37408;DHT22;24866;50.248;8.252;2023-01-01T14:39:24;13.30;99.90
37408;DHT22;24866;50.248;8.252;2023-01-01T14:41:58;13.20;99.90
37408;DHT22;24866;50.248;8.252;2023-01-01T14:44:33;13.20;99.90
37408;DHT22;24866;50.248;8.252;2023-01-01T14:47:17;13.20;99.90
37408;DHT22;24866;50.248;8.252;2023-01-01T14:49:50;13.10;99.90
37408;DHT22;24866;50.248;8.252;2023-01-01T14:52:24;13.10;99.90
37408;DHT22;24866;50.248;8.252;2023-01-01T14:54:57;13.00;99.90
37408;DHT22;24866;50.248;8.252;2023-01-01T14:57:30;13.00;99.90
37408;DHT22;24866;50.248;8.252;2023-01-01T15:00:03;13.00;99.90
37408;DHT22;24866;50.248;8.252;2023-01-01T15:02:43;13.00;99.90
37408;DHT22;24866;50.248;8.252;2023-01-01T15:05:30;12.90;99.90
37408;DHT22;24866;50.248;8.252;2023-01-01T15:08:03;12.90;99.90
37408;DHT22;24866;50.248;8.252;2023-01-01T15:10:36;13.00;99.90
37408;DHT22;24866;50.248;8.252;2023-01-01T15:13:12;12.90;99.90
37408;DHT22;24866;50.248;8.252;2023-01-01T15:15:47;13.00;99.90
37408;DHT22;24866;50.248;8.252;2023-01-01T15:18:36;13.00;99.90
37408;DHT22;24866;50.248;8.252;2023-01-01T15:21:12;13.00;99.90
37408;DHT22;24866;50.248;8.252;2023-01-01T15:23:51;13.00;99.90
37408;DHT22;24866;50.248;8.252;2023-01-01T15:26:26;13.00;99.90
37408;DHT22;24866;50.248;8.252;2023-01-01T15:29:00;12.90;99.90
37408;DHT22;24866;50.248;8.252;2023-01-01T15:31:36;12.90;99.90
37408;DHT22;24866;50.248;8.252;2023-01-01T15:34:19;12.80;99.90
37408;DHT22;24866;50.248;8.252;2023-01-01T15:36:52;12.80;99.90
37408;DHT22;24866;50.248;8.252;2023-01-01T15:39:29;12.80;99.90
37408;DHT22;24866;50.248;8.252;2023-01-01T15:42:00;12.70;99.90
37408;DHT22;24866;50.248;8.252;2023-01-01T15:44:32;12.80;99.90
37408;DHT22;24866;50.248;8.252;2023-01-01T15:47:10;12.70;99.90
37408;DHT22;24866;50.248;8.252;2023-01-01T15:49:42;12.70;99.90
37408;DHT22;24866;50.248;8.252;2023-01-01T15:52:19;12.70;99.90
37408;DHT22;24866;50.248;8.252;2023-01-01T15:54:55;12.70;99.90
37408;DHT22;24866;50.248;8.252;2023-01-01T15:57:25;12.70;99.90
37408;DHT22;24866;50.248;8.252;2023-01-01T15:59:56;12.70;99.90
37408;DHT22;24866;50.248;8.252;2023-01-01T16:02:29;12.50;99.90
37408;DHT22;24866;50.248;8.252;2023-01-01T16:05:01;12.50;99.90
37408;DHT22;24866;50.248;8.252;2023-01-01T16:07:33;12.60;99.90
37408;DHT22;24866;50.248;8.252;2023-01-01T16:10:12;12.50;99.90
37408;DHT22;24866;50.248;8.252;2023-01-01T16:12:43;12.40;99.90
37408;DHT22;24866;50.248;8.252;2023-01-01T16:15:14;12.50;99.90
37408;DHT22;24866;50.248;8.252;2023-01-01T16:17:45;12.50;99.90
37408;DHT22;24866;50.248;8.252;2023-01-01T16:20:18;12.50;99.90
37408;DHT22;24866;50.248;8.252;2023-01-01T16:22:49;12.60;99.90
37408;DHT22;24866;50.248;8.252;2023-01-01T16:25:22;12.70;99.90
37408;DHT22;24866;50.248;8.252;2023-01-01T16:27:52;12.60;99.90
37408;DHT22;24866;50.248;8.252;2023-01-01T16:30:24;12.70;99.90
37408;DHT22;24866;50.248;8.252;2023-01-01T16:32:56;12.60;99.90
37408;DHT22;24866;50.248;8.252;2023-01-01T16:35:27;12.70;99.90
37408;DHT22;24866;50.248;8.252;2023-01-01T16:37:57;12.70;99.90
37408;DHT22;24866;50.248;8.252;2023-01-01T16:40:28;12.70;99.90
37408;DHT22;24866;50.248;8.252;2023-01-01T16:42:59;12.70;99.90
37408;DHT22;24866;50.248;8.252;2023-01-01T16:45:29;12.80;99.90
37408;DHT22;24866;50.248;8.252;2023-01-01T16:48:00;12.70;99.90
37408;DHT22;24866;50.248;8.252;2023-01-01T16:50:30;12.80;99.90
37408;DHT22;24866;50.248;8.252;2023-01-01T16:53:00;12.80;99.90
37408;DHT22;24866;50.248;8.252;2023-01-01T16:55:32;12.70;99.90
37408;DHT22;24866;50.248;8.252;2023-01-01T16:58:02;12.70;99.90